sensor_id;sensor_type;location;lat;lon;timestamp;P1;durP1;ratioP1;P2;durP2;ratioP2
938;SDS011;456;53.584;9.968;2023-08-07T00:01:50;3.00;;;2.20;;
938;SDS011;456;53.584;9.968;2023-08-07T00:04:15;2.60;;;2.40;;
938;SDS011;456;53.584;9.968;2023-08-07T00:06:41;2.80;;;2.60;;
938;SDS011;456;53.584;9.968;2023-08-07T00:09:07;2.17;;;1.97;;
938;SDS011;456;53.584;9.968;2023-08-07T00:11:32;2.70;;;2.50;;
938;SDS011;456;53.584;9.968;2023-08-07T00:13:58;2.63;;;2.43;;
938;SDS011;456;53.584;9.968;2023-08-07T00:16:24;3.13;;;2.80;;
938;SDS011;456;53.584;9.968;2023-08-07T00:18:50;2.93;;;2.73;;
938;SDS011;456;53.584;9.968;2023-08-07T00:21:17;2.50;;;2.30;;
938;SDS011;456;53.584;9.968;2023-08-07T00:23:43;2.67;;;2.47;;
938;SDS011;456;53.584;9.968;2023-08-07T00:26:08;2.20;;;2.00;;
938;SDS011;456;53.584;9.968;2023-08-07T00:28:34;2.57;;;2.37;;
938;SDS011;456;53.584;9.968;2023-08-07T00:30:59;2.33;;;2.13;;
938;SDS011;456;53.584;9.968;2023-08-07T00:33:25;3.30;;;2.20;;
938;SDS011;456;53.584;9.968;2023-08-07T00:35:51;2.73;;;2.53;;
938;SDS011;456;53.584;9.968;2023-08-07T00:38:16;4.80;;;2.47;;
938;SDS011;456;53.584;9.968;2023-08-07T00:40:42;2.43;;;2.23;;
938;SDS011;456;53.584;9.968;2023-08-07T00:43:07;2.43;;;2.23;;
938;SDS011;456;53.584;9.968;2023-08-07T00:45:34;2.33;;;2.10;;
938;SDS011;456;53.584;9.968;2023-08-07T00:48:06;3.70;;;2.00;;
938;SDS011;456;53.584;9.968;2023-08-07T00:50:32;2.23;;;2.03;;
938;SDS011;456;53.584;9.968;2023-08-07T00:52:58;2.20;;;2.00;;
938;SDS011;456;53.584;9.968;2023-08-07T00:55:24;2.90;;;2.37;;
938;SDS011;456;53.584;9.968;2023-08-07T00:57:50;2.50;;;2.30;;
938;SDS011;456;53.584;9.968;2023-08-07T01:00:16;3.73;;;2.17;;
938;SDS011;456;53.584;9.968;2023-08-07T01:02:42;4.40;;;2.20;;
938;SDS011;456;53.584;9.968;2023-08-07T01:05:08;2.93;;;2.73;;
938;SDS011;456;53.584;9.968;2023-08-07T01:07:34;2.37;;;1.90;;
938;SDS011;456;53.584;9.968;2023-08-07T01:10:00;2.30;;;2.10;;
938;SDS011;456;53.584;9.968;2023-08-07T01:12:30;3.10;;;2.40;;
938;SDS011;456;53.584;9.968;2023-08-07T01:17:29;2.60;;;2.30;;
938;SDS011;456;53.584;9.968;2023-08-07T01:19:58;2.70;;;2.50;;
938;SDS011;456;53.584;9.968;2023-08-07T01:22:24;2.37;;;2.17;;
938;SDS011;456;53.584;9.968;2023-08-07T01:24:50;2.70;;;2.50;;
938;SDS011;456;53.584;9.968;2023-08-07T01:32:18;2.63;;;2.20;;
938;SDS011;456;53.584;9.968;2023-08-07T01:34:49;3.07;;;2.77;;
938;SDS011;456;53.584;9.968;2023-08-07T01:37:16;2.47;;;2.10;;
938;SDS011;456;53.584;9.968;2023-08-07T01:39:43;3.23;;;2.23;;
938;SDS011;456;53.584;9.968;2023-08-07T01:42:10;2.20;;;2.10;;
938;SDS011;456;53.584;9.968;2023-08-07T01:44:36;2.73;;;2.50;;
938;SDS011;456;53.584;9.968;2023-08-07T01:47:03;2.90;;;2.23;;
938;SDS011;456;53.584;9.968;2023-08-07T01:49:28;2.80;;;2.50;;
938;SDS011;456;53.584;9.968;2023-08-07T01:51:54;2.10;;;2.00;;
938;SDS011;456;53.584;9.968;2023-08-07T01:54:19;2.57;;;2.10;;
938;SDS011;456;53.584;9.968;2023-08-07T01:56:45;2.70;;;2.50;;
938;SDS011;456;53.584;9.968;2023-08-07T01:59:10;2.80;;;2.30;;
938;SDS011;456;53.584;9.968;2023-08-07T02:01:36;2.67;;;2.47;;
938;SDS011;456;53.584;9.968;2023-08-07T02:04:02;3.20;;;2.83;;
938;SDS011;456;53.584;9.968;2023-08-07T02:06:27;2.80;;;2.47;;
938;SDS011;456;53.584;9.968;2023-08-07T02:08:53;2.73;;;2.53;;
938;SDS011;456;53.584;9.968;2023-08-07T02:11:18;2.60;;;2.40;;
938;SDS011;456;53.584;9.968;2023-08-07T02:13:44;3.20;;;2.60;;
938;SDS011;456;53.584;9.968;2023-08-07T02:16:09;2.73;;;2.47;;
938;SDS011;456;53.584;9.968;2023-08-07T02:18:35;3.07;;;2.87;;
938;SDS011;456;53.584;9.968;2023-08-07T02:21:00;2.97;;;2.30;;
938;SDS011;456;53.584;9.968;2023-08-07T02:23:26;2.33;;;2.03;;
938;SDS011;456;53.584;9.968;2023-08-07T02:25:53;2.37;;;2.17;;
938;SDS011;456;53.584;9.968;2023-08-07T02:28:19;3.60;;;1.83;;
938;SDS011;456;53.584;9.968;2023-08-07T02:30:48;2.40;;;2.20;;
938;SDS011;456;53.584;9.968;2023-08-07T02:33:16;3.83;;;2.03;;
938;SDS011;456;53.584;9.968;2023-08-07T02:35:41;2.90;;;2.27;;
938;SDS011;456;53.584;9.968;2023-08-07T02:38:07;3.63;;;2.50;;
938;SDS011;456;53.584;9.968;2023-08-07T02:40:33;3.53;;;2.17;;
938;SDS011;456;53.584;9.968;2023-08-07T02:42:58;2.73;;;2.10;;
938;SDS011;456;53.584;9.968;2023-08-07T02:45:24;2.03;;;1.87;;
938;SDS011;456;53.584;9.968;2023-08-07T02:47:49;3.93;;;2.40;;
938;SDS011;456;53.584;9.968;2023-08-07T02:50:15;2.30;;;2.10;;
938;SDS011;456;53.584;9.968;2023-08-07T02:52:40;2.47;;;2.03;;
938;SDS011;456;53.584;9.968;2023-08-07T02:55:06;2.63;;;2.43;;
938;SDS011;456;53.584;9.968;2023-08-07T02:57:32;2.10;;;1.90;;
938;SDS011;456;53.584;9.968;2023-08-07T02:59:57;2.43;;;1.93;;
938;SDS011;456;53.584;9.968;2023-08-07T03:02:23;2.57;;;1.90;;
938;SDS011;456;53.584;9.968;2023-08-07T03:04:49;1.97;;;1.87;;
938;SDS011;456;53.584;9.968;2023-08-07T03:07:14;2.53;;;2.07;;
938;SDS011;456;53.584;9.968;2023-08-07T03:09:40;2.63;;;2.30;;
938;SDS011;456;53.584;9.968;2023-08-07T03:12:06;2.93;;;2.20;;
938;SDS011;456;53.584;9.968;2023-08-07T03:14:31;2.63;;;2.10;;
938;SDS011;456;53.584;9.968;2023-08-07T03:16:57;2.40;;;2.20;;
938;SDS011;456;53.584;9.968;2023-08-07T03:19:23;2.40;;;2.20;;
938;SDS011;456;53.584;9.968;2023-08-07T03:21:49;2.30;;;1.90;;
938;SDS011;456;53.584;9.968;2023-08-07T03:24:14;2.30;;;2.10;;
938;SDS011;456;53.584;9.968;2023-08-07T03:26:40;2.80;;;2.37;;
938;SDS011;456;53.584;9.968;2023-08-07T03:29:06;3.70;;;2.20;;
938;SDS011;456;53.584;9.968;2023-08-07T03:31:31;2.73;;;2.00;;
938;SDS011;456;53.584;9.968;2023-08-07T03:33:57;3.43;;;2.10;;
938;SDS011;456;53.584;9.968;2023-08-07T03:36:23;2.10;;;1.87;;
938;SDS011;456;53.584;9.968;2023-08-07T03:38:49;1.70;;;1.60;;
938;SDS011;456;53.584;9.968;2023-08-07T03:41:14;2.20;;;2.00;;
938;SDS011;456;53.584;9.968;2023-08-07T03:43:40;2.10;;;1.90;;
938;SDS011;456;53.584;9.968;2023-08-07T03:46:05;4.27;;;2.07;;
938;SDS011;456;53.584;9.968;2023-08-07T03:48:31;4.00;;;2.60;;
938;SDS011;456;53.584;9.968;2023-08-07T03:51:05;2.30;;;2.10;;
938;SDS011;456;53.584;9.968;2023-08-07T03:53:35;2.10;;;1.90;;
938;SDS011;456;53.584;9.968;2023-08-07T03:56:01;2.10;;;1.90;;
938;SDS011;456;53.584;9.968;2023-08-07T03:58:27;3.30;;;2.00;;
938;SDS011;456;53.584;9.968;2023-08-07T04:00:53;10.00;;;2.43;;
938;SDS011;456;53.584;9.968;2023-08-07T04:03:19;2.47;;;1.93;;
938;SDS011;456;53.584;9.968;2023-08-07T04:05:45;3.13;;;2.20;;
938;SDS011;456;53.584;9.968;2023-08-07T04:08:10;2.30;;;1.80;;
938;SDS011;456;53.584;9.968;2023-08-07T04:10:36;2.13;;;1.80;;
938;SDS011;456;53.584;9.968;2023-08-07T04:13:01;2.13;;;1.93;;
938;SDS011;456;53.584;9.968;2023-08-07T04:15:27;1.83;;;1.63;;
938;SDS011;456;53.584;9.968;2023-08-07T04:17:52;2.50;;;1.90;;
938;SDS011;456;53.584;9.968;2023-08-07T04:20:18;2.57;;;2.07;;
938;SDS011;456;53.584;9.968;2023-08-07T04:22:45;1.63;;;1.53;;
938;SDS011;456;53.584;9.968;2023-08-07T04:25:11;1.70;;;1.60;;
938;SDS011;456;53.584;9.968;2023-08-07T04:27:37;2.97;;;1.87;;
938;SDS011;456;53.584;9.968;2023-08-07T04:30:03;2.07;;;1.60;;
938;SDS011;456;53.584;9.968;2023-08-07T04:32:31;2.30;;;1.73;;
938;SDS011;456;53.584;9.968;2023-08-07T04:34:57;2.47;;;2.07;;
938;SDS011;456;53.584;9.968;2023-08-07T04:37:23;2.70;;;2.10;;
938;SDS011;456;53.584;9.968;2023-08-07T04:39:49;2.40;;;1.80;;
938;SDS011;456;53.584;9.968;2023-08-07T04:42:14;2.10;;;1.90;;
938;SDS011;456;53.584;9.968;2023-08-07T04:44:40;1.90;;;1.80;;
938;SDS011;456;53.584;9.968;2023-08-07T04:47:06;3.30;;;1.43;;
938;SDS011;456;53.584;9.968;2023-08-07T04:49:32;2.17;;;1.97;;
938;SDS011;456;53.584;9.968;2023-08-07T04:51:58;1.70;;;1.60;;
938;SDS011;456;53.584;9.968;2023-08-07T04:54:23;2.83;;;2.40;;
938;SDS011;456;53.584;9.968;2023-08-07T04:56:49;2.80;;;2.03;;
938;SDS011;456;53.584;9.968;2023-08-07T04:59:14;2.00;;;1.77;;
938;SDS011;456;53.584;9.968;2023-08-07T05:01:40;2.30;;;2.03;;
938;SDS011;456;53.584;9.968;2023-08-07T05:04:06;2.50;;;1.90;;
938;SDS011;456;53.584;9.968;2023-08-07T05:06:31;2.23;;;1.83;;
938;SDS011;456;53.584;9.968;2023-08-07T05:08:57;2.20;;;1.90;;
938;SDS011;456;53.584;9.968;2023-08-07T05:11:23;2.70;;;1.80;;
938;SDS011;456;53.584;9.968;2023-08-07T05:13:48;2.00;;;1.80;;
938;SDS011;456;53.584;9.968;2023-08-07T05:16:14;2.30;;;2.10;;
938;SDS011;456;53.584;9.968;2023-08-07T05:18:39;2.67;;;2.10;;
938;SDS011;456;53.584;9.968;2023-08-07T05:21:05;1.90;;;1.80;;
938;SDS011;456;53.584;9.968;2023-08-07T05:23:33;2.00;;;1.80;;
938;SDS011;456;53.584;9.968;2023-08-07T05:25:59;1.90;;;1.80;;
938;SDS011;456;53.584;9.968;2023-08-07T05:28:24;1.80;;;1.57;;
938;SDS011;456;53.584;9.968;2023-08-07T05:30:50;2.30;;;2.10;;
938;SDS011;456;53.584;9.968;2023-08-07T05:33:15;2.30;;;2.10;;
938;SDS011;456;53.584;9.968;2023-08-07T05:35:41;1.77;;;1.67;;
938;SDS011;456;53.584;9.968;2023-08-07T05:38:07;3.07;;;2.17;;
938;SDS011;456;53.584;9.968;2023-08-07T05:40:33;3.47;;;1.90;;
938;SDS011;456;53.584;9.968;2023-08-07T05:43:01;2.10;;;1.90;;
938;SDS011;456;53.584;9.968;2023-08-07T05:45:27;2.63;;;2.23;;
938;SDS011;456;53.584;9.968;2023-08-07T05:47:52;2.00;;;1.80;;
938;SDS011;456;53.584;9.968;2023-08-07T05:50:18;2.00;;;1.80;;
938;SDS011;456;53.584;9.968;2023-08-07T05:52:43;4.17;;;2.03;;
938;SDS011;456;53.584;9.968;2023-08-07T05:55:09;2.40;;;1.93;;
938;SDS011;456;53.584;9.968;2023-08-07T05:57:34;2.40;;;1.90;;
938;SDS011;456;53.584;9.968;2023-08-07T06:00:00;2.00;;;1.67;;
938;SDS011;456;53.584;9.968;2023-08-07T06:02:26;2.77;;;2.30;;
938;SDS011;456;53.584;9.968;2023-08-07T06:04:51;2.80;;;1.97;;
938;SDS011;456;53.584;9.968;2023-08-07T06:07:17;2.80;;;2.07;;
938;SDS011;456;53.584;9.968;2023-08-07T06:09:43;2.27;;;2.07;;
938;SDS011;456;53.584;9.968;2023-08-07T06:12:09;1.90;;;1.80;;
938;SDS011;456;53.584;9.968;2023-08-07T06:14:36;2.13;;;1.90;;
938;SDS011;456;53.584;9.968;2023-08-07T06:17:03;2.23;;;1.90;;
938;SDS011;456;53.584;9.968;2023-08-07T06:19:28;3.23;;;2.23;;
938;SDS011;456;53.584;9.968;2023-08-07T06:21:54;2.00;;;1.73;;
938;SDS011;456;53.584;9.968;2023-08-07T06:24:19;1.90;;;1.70;;
938;SDS011;456;53.584;9.968;2023-08-07T06:26:45;2.60;;;2.13;;
938;SDS011;456;53.584;9.968;2023-08-07T06:29:11;2.80;;;1.70;;
938;SDS011;456;53.584;9.968;2023-08-07T06:31:36;3.10;;;1.73;;
938;SDS011;456;53.584;9.968;2023-08-07T06:34:02;2.17;;;1.90;;
938;SDS011;456;53.584;9.968;2023-08-07T06:36:27;5.97;;;2.20;;
938;SDS011;456;53.584;9.968;2023-08-07T06:38:53;2.57;;;2.00;;
938;SDS011;456;53.584;9.968;2023-08-07T06:41:19;2.40;;;2.03;;
938;SDS011;456;53.584;9.968;2023-08-07T06:43:45;3.37;;;2.30;;
938;SDS011;456;53.584;9.968;2023-08-07T06:46:10;4.17;;;2.20;;
938;SDS011;456;53.584;9.968;2023-08-07T06:48:36;5.60;;;2.30;;
938;SDS011;456;53.584;9.968;2023-08-07T06:51:02;5.67;;;2.20;;
938;SDS011;456;53.584;9.968;2023-08-07T06:53:27;3.30;;;2.00;;
938;SDS011;456;53.584;9.968;2023-08-07T06:55:53;4.60;;;1.93;;
938;SDS011;456;53.584;9.968;2023-08-07T06:58:19;3.33;;;2.10;;
938;SDS011;456;53.584;9.968;2023-08-07T07:00:45;3.00;;;2.53;;
938;SDS011;456;53.584;9.968;2023-08-07T07:03:11;3.33;;;1.77;;
938;SDS011;456;53.584;9.968;2023-08-07T07:05:36;3.20;;;2.23;;
938;SDS011;456;53.584;9.968;2023-08-07T07:08:02;2.90;;;1.90;;
938;SDS011;456;53.584;9.968;2023-08-07T07:10:28;4.43;;;2.23;;
938;SDS011;456;53.584;9.968;2023-08-07T07:12:54;2.73;;;2.40;;
938;SDS011;456;53.584;9.968;2023-08-07T07:15:20;4.27;;;2.17;;
938;SDS011;456;53.584;9.968;2023-08-07T07:17:45;2.77;;;2.07;;
938;SDS011;456;53.584;9.968;2023-08-07T07:20:11;5.77;;;2.20;;
938;SDS011;456;53.584;9.968;2023-08-07T07:22:37;2.53;;;2.33;;
938;SDS011;456;53.584;9.968;2023-08-07T07:25:03;2.80;;;1.90;;
938;SDS011;456;53.584;9.968;2023-08-07T07:27:29;3.30;;;2.13;;
938;SDS011;456;53.584;9.968;2023-08-07T07:29:55;3.93;;;2.07;;
938;SDS011;456;53.584;9.968;2023-08-07T07:32:20;2.70;;;2.10;;
938;SDS011;456;53.584;9.968;2023-08-07T07:34:46;3.63;;;2.33;;
938;SDS011;456;53.584;9.968;2023-08-07T07:37:12;2.23;;;1.70;;
938;SDS011;456;53.584;9.968;2023-08-07T07:39:39;2.63;;;2.20;;
938;SDS011;456;53.584;9.968;2023-08-07T07:42:04;3.13;;;2.83;;
938;SDS011;456;53.584;9.968;2023-08-07T07:44:31;2.63;;;2.20;;
938;SDS011;456;53.584;9.968;2023-08-07T07:46:58;2.77;;;1.77;;
938;SDS011;456;53.584;9.968;2023-08-07T07:49:24;4.03;;;2.83;;
938;SDS011;456;53.584;9.968;2023-08-07T07:51:49;4.80;;;2.50;;
938;SDS011;456;53.584;9.968;2023-08-07T07:54:15;3.40;;;2.50;;
938;SDS011;456;53.584;9.968;2023-08-07T07:56:41;2.73;;;2.20;;
938;SDS011;456;53.584;9.968;2023-08-07T07:59:07;2.80;;;2.50;;
938;SDS011;456;53.584;9.968;2023-08-07T08:01:33;4.67;;;3.13;;
938;SDS011;456;53.584;9.968;2023-08-07T08:03:58;3.50;;;2.20;;
938;SDS011;456;53.584;9.968;2023-08-07T08:06:24;5.13;;;2.60;;
938;SDS011;456;53.584;9.968;2023-08-07T08:08:50;3.67;;;2.27;;
938;SDS011;456;53.584;9.968;2023-08-07T08:11:15;3.50;;;2.60;;
938;SDS011;456;53.584;9.968;2023-08-07T08:13:41;2.70;;;2.30;;
938;SDS011;456;53.584;9.968;2023-08-07T08:16:06;4.70;;;2.60;;
938;SDS011;456;53.584;9.968;2023-08-07T08:18:32;3.73;;;2.60;;
938;SDS011;456;53.584;9.968;2023-08-07T08:20:58;4.20;;;2.90;;
938;SDS011;456;53.584;9.968;2023-08-07T08:23:24;3.27;;;2.57;;
938;SDS011;456;53.584;9.968;2023-08-07T08:25:50;6.37;;;3.20;;
938;SDS011;456;53.584;9.968;2023-08-07T08:28:16;3.00;;;2.43;;
938;SDS011;456;53.584;9.968;2023-08-07T08:30:42;6.57;;;2.93;;
938;SDS011;456;53.584;9.968;2023-08-07T08:33:08;5.80;;;2.83;;
938;SDS011;456;53.584;9.968;2023-08-07T08:35:37;4.93;;;3.10;;
938;SDS011;456;53.584;9.968;2023-08-07T08:38:03;4.23;;;2.67;;
938;SDS011;456;53.584;9.968;2023-08-07T08:40:28;6.33;;;2.80;;
938;SDS011;456;53.584;9.968;2023-08-07T08:42:55;4.47;;;3.40;;
938;SDS011;456;53.584;9.968;2023-08-07T08:45:24;7.10;;;3.07;;
938;SDS011;456;53.584;9.968;2023-08-07T08:47:52;3.70;;;2.70;;
938;SDS011;456;53.584;9.968;2023-08-07T08:50:25;6.50;;;2.93;;
938;SDS011;456;53.584;9.968;2023-08-07T08:52:51;6.40;;;3.10;;
938;SDS011;456;53.584;9.968;2023-08-07T08:55:20;4.50;;;2.43;;
938;SDS011;456;53.584;9.968;2023-08-07T08:57:47;6.23;;;3.20;;
938;SDS011;456;53.584;9.968;2023-08-07T09:00:15;5.90;;;3.13;;
938;SDS011;456;53.584;9.968;2023-08-07T09:02:45;5.77;;;2.80;;
938;SDS011;456;53.584;9.968;2023-08-07T09:05:11;4.93;;;3.13;;
938;SDS011;456;53.584;9.968;2023-08-07T09:07:37;3.90;;;2.43;;
938;SDS011;456;53.584;9.968;2023-08-07T09:10:03;3.37;;;2.47;;
938;SDS011;456;53.584;9.968;2023-08-07T09:12:31;3.80;;;3.37;;
938;SDS011;456;53.584;9.968;2023-08-07T09:14:58;5.47;;;2.80;;
938;SDS011;456;53.584;9.968;2023-08-07T09:17:27;5.23;;;2.70;;
938;SDS011;456;53.584;9.968;2023-08-07T09:19:54;7.70;;;3.20;;
938;SDS011;456;53.584;9.968;2023-08-07T09:22:20;5.03;;;3.40;;
938;SDS011;456;53.584;9.968;2023-08-07T09:24:46;7.67;;;3.60;;
938;SDS011;456;53.584;9.968;2023-08-07T09:27:12;4.20;;;2.70;;
938;SDS011;456;53.584;9.968;2023-08-07T09:29:44;7.03;;;3.03;;
938;SDS011;456;53.584;9.968;2023-08-07T09:32:11;5.43;;;3.20;;
938;SDS011;456;53.584;9.968;2023-08-07T09:34:41;5.10;;;3.30;;
938;SDS011;456;53.584;9.968;2023-08-07T09:37:08;5.93;;;3.27;;
938;SDS011;456;53.584;9.968;2023-08-07T09:39:34;4.80;;;3.10;;
938;SDS011;456;53.584;9.968;2023-08-07T09:42:01;2.87;;;2.63;;
938;SDS011;456;53.584;9.968;2023-08-07T09:44:35;6.67;;;2.80;;
938;SDS011;456;53.584;9.968;2023-08-07T09:47:01;3.90;;;2.57;;
938;SDS011;456;53.584;9.968;2023-08-07T09:49:40;5.47;;;2.97;;
938;SDS011;456;53.584;9.968;2023-08-07T09:52:06;4.93;;;3.27;;
938;SDS011;456;53.584;9.968;2023-08-07T09:54:35;4.70;;;3.50;;
938;SDS011;456;53.584;9.968;2023-08-07T09:57:01;4.67;;;2.67;;
938;SDS011;456;53.584;9.968;2023-08-07T09:59:28;5.27;;;3.20;;
938;SDS011;456;53.584;9.968;2023-08-07T10:01:54;6.43;;;3.07;;
938;SDS011;456;53.584;9.968;2023-08-07T10:04:21;3.60;;;2.80;;
938;SDS011;456;53.584;9.968;2023-08-07T10:06:47;4.80;;;2.80;;
938;SDS011;456;53.584;9.968;2023-08-07T10:09:13;4.83;;;2.83;;
938;SDS011;456;53.584;9.968;2023-08-07T10:11:39;6.30;;;2.90;;
938;SDS011;456;53.584;9.968;2023-08-07T10:14:06;5.07;;;2.53;;
938;SDS011;456;53.584;9.968;2023-08-07T10:16:31;2.90;;;2.30;;
938;SDS011;456;53.584;9.968;2023-08-07T10:18:57;3.33;;;2.50;;
938;SDS011;456;53.584;9.968;2023-08-07T10:21:23;6.13;;;2.70;;
938;SDS011;456;53.584;9.968;2023-08-07T10:23:51;4.03;;;2.60;;
938;SDS011;456;53.584;9.968;2023-08-07T10:26:18;6.70;;;2.80;;
938;SDS011;456;53.584;9.968;2023-08-07T10:28:46;5.30;;;3.20;;
938;SDS011;456;53.584;9.968;2023-08-07T10:31:14;9.40;;;3.73;;
938;SDS011;456;53.584;9.968;2023-08-07T10:33:41;6.50;;;3.73;;
938;SDS011;456;53.584;9.968;2023-08-07T10:36:08;4.77;;;3.27;;
938;SDS011;456;53.584;9.968;2023-08-07T10:38:35;7.73;;;3.23;;
938;SDS011;456;53.584;9.968;2023-08-07T10:41:14;5.60;;;3.57;;
938;SDS011;456;53.584;9.968;2023-08-07T10:43:43;4.70;;;3.00;;
938;SDS011;456;53.584;9.968;2023-08-07T10:46:10;5.60;;;3.40;;
938;SDS011;456;53.584;9.968;2023-08-07T10:48:37;5.57;;;2.60;;
938;SDS011;456;53.584;9.968;2023-08-07T10:51:16;4.90;;;3.10;;
938;SDS011;456;53.584;9.968;2023-08-07T10:53:48;10.60;;;3.57;;
938;SDS011;456;53.584;9.968;2023-08-07T10:56:17;5.77;;;3.27;;
938;SDS011;456;53.584;9.968;2023-08-07T10:58:55;8.93;;;2.70;;
938;SDS011;456;53.584;9.968;2023-08-07T11:03:51;5.80;;;2.90;;
938;SDS011;456;53.584;9.968;2023-08-07T11:06:21;3.67;;;2.70;;
938;SDS011;456;53.584;9.968;2023-08-07T11:08:49;4.10;;;2.60;;
938;SDS011;456;53.584;9.968;2023-08-07T11:11:15;4.93;;;2.60;;
938;SDS011;456;53.584;9.968;2023-08-07T11:13:41;5.93;;;3.00;;
938;SDS011;456;53.584;9.968;2023-08-07T11:16:06;4.70;;;2.93;;
938;SDS011;456;53.584;9.968;2023-08-07T11:18:32;5.80;;;3.13;;
938;SDS011;456;53.584;9.968;2023-08-07T11:20:58;4.10;;;2.67;;
938;SDS011;456;53.584;9.968;2023-08-07T11:23:27;5.87;;;3.10;;
938;SDS011;456;53.584;9.968;2023-08-07T11:25:55;4.53;;;3.03;;
938;SDS011;456;53.584;9.968;2023-08-07T11:28:22;6.57;;;3.13;;
938;SDS011;456;53.584;9.968;2023-08-07T11:30:51;5.77;;;2.50;;
938;SDS011;456;53.584;9.968;2023-08-07T11:33:18;3.30;;;2.33;;
938;SDS011;456;53.584;9.968;2023-08-07T11:35:44;5.03;;;2.70;;
938;SDS011;456;53.584;9.968;2023-08-07T11:38:11;4.50;;;2.70;;
938;SDS011;456;53.584;9.968;2023-08-07T11:40:36;5.17;;;2.63;;
938;SDS011;456;53.584;9.968;2023-08-07T11:43:02;3.70;;;2.40;;
938;SDS011;456;53.584;9.968;2023-08-07T11:45:28;8.27;;;3.50;;
938;SDS011;456;53.584;9.968;2023-08-07T11:47:54;5.13;;;3.27;;
938;SDS011;456;53.584;9.968;2023-08-07T11:50:22;4.37;;;3.20;;
938;SDS011;456;53.584;9.968;2023-08-07T11:52:48;6.60;;;2.73;;
938;SDS011;456;53.584;9.968;2023-08-07T11:55:14;4.30;;;3.00;;
938;SDS011;456;53.584;9.968;2023-08-07T11:57:40;3.60;;;2.50;;
938;SDS011;456;53.584;9.968;2023-08-07T12:00:07;3.17;;;2.43;;
938;SDS011;456;53.584;9.968;2023-08-07T12:02:40;4.57;;;2.50;;
938;SDS011;456;53.584;9.968;2023-08-07T12:05:08;3.53;;;2.77;;
938;SDS011;456;53.584;9.968;2023-08-07T12:07:36;5.83;;;3.30;;
938;SDS011;456;53.584;9.968;2023-08-07T12:10:08;3.13;;;2.50;;
938;SDS011;456;53.584;9.968;2023-08-07T12:12:36;4.43;;;2.83;;
938;SDS011;456;53.584;9.968;2023-08-07T12:15:02;5.47;;;2.50;;
938;SDS011;456;53.584;9.968;2023-08-07T12:17:31;6.27;;;3.60;;
938;SDS011;456;53.584;9.968;2023-08-07T12:19:57;4.67;;;2.67;;
938;SDS011;456;53.584;9.968;2023-08-07T12:22:23;4.17;;;3.63;;
938;SDS011;456;53.584;9.968;2023-08-07T12:24:53;5.30;;;3.33;;
938;SDS011;456;53.584;9.968;2023-08-07T12:27:19;4.43;;;2.93;;
938;SDS011;456;53.584;9.968;2023-08-07T12:29:45;6.47;;;3.17;;
938;SDS011;456;53.584;9.968;2023-08-07T12:32:11;5.40;;;3.07;;
938;SDS011;456;53.584;9.968;2023-08-07T12:34:36;3.90;;;3.03;;
938;SDS011;456;53.584;9.968;2023-08-07T12:37:03;4.57;;;3.73;;
938;SDS011;456;53.584;9.968;2023-08-07T12:39:29;5.10;;;3.80;;
938;SDS011;456;53.584;9.968;2023-08-07T12:41:55;7.23;;;3.40;;
938;SDS011;456;53.584;9.968;2023-08-07T12:44:20;7.70;;;3.80;;
938;SDS011;456;53.584;9.968;2023-08-07T12:46:46;8.43;;;3.37;;
938;SDS011;456;53.584;9.968;2023-08-07T12:49:12;8.20;;;3.20;;
938;SDS011;456;53.584;9.968;2023-08-07T12:51:37;5.43;;;3.60;;
938;SDS011;456;53.584;9.968;2023-08-07T12:54:03;5.37;;;3.10;;
938;SDS011;456;53.584;9.968;2023-08-07T12:56:29;6.90;;;3.30;;
938;SDS011;456;53.584;9.968;2023-08-07T12:58:55;4.03;;;2.57;;
938;SDS011;456;53.584;9.968;2023-08-07T13:01:20;4.80;;;3.50;;
938;SDS011;456;53.584;9.968;2023-08-07T13:03:46;5.87;;;3.20;;
938;SDS011;456;53.584;9.968;2023-08-07T13:06:12;5.17;;;3.87;;
938;SDS011;456;53.584;9.968;2023-08-07T13:08:37;3.97;;;2.93;;
938;SDS011;456;53.584;9.968;2023-08-07T13:11:03;3.60;;;2.97;;
938;SDS011;456;53.584;9.968;2023-08-07T13:13:28;3.60;;;2.80;;
938;SDS011;456;53.584;9.968;2023-08-07T13:15:55;3.27;;;2.70;;
938;SDS011;456;53.584;9.968;2023-08-07T13:18:21;4.37;;;3.60;;
938;SDS011;456;53.584;9.968;2023-08-07T13:20:47;5.13;;;2.97;;
938;SDS011;456;53.584;9.968;2023-08-07T13:23:13;6.93;;;3.40;;
938;SDS011;456;53.584;9.968;2023-08-07T13:25:39;6.40;;;3.17;;
938;SDS011;456;53.584;9.968;2023-08-07T13:28:05;5.03;;;3.30;;
938;SDS011;456;53.584;9.968;2023-08-07T13:30:34;5.93;;;3.27;;
938;SDS011;456;53.584;9.968;2023-08-07T13:33:00;3.90;;;2.93;;
938;SDS011;456;53.584;9.968;2023-08-07T13:35:26;4.93;;;2.70;;
938;SDS011;456;53.584;9.968;2023-08-07T13:37:51;4.87;;;2.67;;
938;SDS011;456;53.584;9.968;2023-08-07T13:40:17;3.00;;;2.53;;
938;SDS011;456;53.584;9.968;2023-08-07T13:42:43;4.93;;;2.93;;
938;SDS011;456;53.584;9.968;2023-08-07T13:45:11;4.00;;;2.77;;
938;SDS011;456;53.584;9.968;2023-08-07T13:47:38;3.80;;;2.53;;
938;SDS011;456;53.584;9.968;2023-08-07T13:50:04;4.23;;;2.60;;
938;SDS011;456;53.584;9.968;2023-08-07T13:52:32;3.93;;;2.40;;
938;SDS011;456;53.584;9.968;2023-08-07T13:54:58;3.10;;;2.63;;
938;SDS011;456;53.584;9.968;2023-08-07T13:57:24;5.17;;;2.50;;
938;SDS011;456;53.584;9.968;2023-08-07T13:59:49;4.17;;;2.73;;
938;SDS011;456;53.584;9.968;2023-08-07T14:02:15;3.30;;;2.50;;
938;SDS011;456;53.584;9.968;2023-08-07T14:04:40;5.40;;;3.03;;
938;SDS011;456;53.584;9.968;2023-08-07T14:07:10;4.73;;;2.30;;
938;SDS011;456;53.584;9.968;2023-08-07T14:09:35;7.90;;;2.33;;
938;SDS011;456;53.584;9.968;2023-08-07T14:12:02;3.07;;;2.33;;
938;SDS011;456;53.584;9.968;2023-08-07T14:14:28;5.07;;;2.80;;
938;SDS011;456;53.584;9.968;2023-08-07T14:16:53;2.90;;;2.23;;
938;SDS011;456;53.584;9.968;2023-08-07T14:19:22;6.17;;;2.27;;
938;SDS011;456;53.584;9.968;2023-08-07T14:21:48;4.80;;;2.93;;
938;SDS011;456;53.584;9.968;2023-08-07T14:24:14;5.13;;;3.23;;
938;SDS011;456;53.584;9.968;2023-08-07T14:26:41;5.10;;;3.30;;
938;SDS011;456;53.584;9.968;2023-08-07T14:29:06;4.03;;;2.83;;
938;SDS011;456;53.584;9.968;2023-08-07T14:31:32;5.63;;;2.77;;
938;SDS011;456;53.584;9.968;2023-08-07T14:33:58;3.70;;;2.93;;
938;SDS011;456;53.584;9.968;2023-08-07T14:36:23;4.67;;;2.20;;
938;SDS011;456;53.584;9.968;2023-08-07T14:38:49;5.07;;;2.50;;
938;SDS011;456;53.584;9.968;2023-08-07T14:41:14;4.30;;;2.87;;
938;SDS011;456;53.584;9.968;2023-08-07T14:43:40;5.93;;;3.40;;
938;SDS011;456;53.584;9.968;2023-08-07T14:46:06;5.50;;;3.27;;
938;SDS011;456;53.584;9.968;2023-08-07T14:48:31;6.97;;;3.23;;
938;SDS011;456;53.584;9.968;2023-08-07T14:50:57;4.97;;;2.80;;
938;SDS011;456;53.584;9.968;2023-08-07T14:53:22;4.43;;;2.90;;
938;SDS011;456;53.584;9.968;2023-08-07T14:55:50;5.30;;;3.00;;
938;SDS011;456;53.584;9.968;2023-08-07T14:58:16;3.60;;;2.60;;
938;SDS011;456;53.584;9.968;2023-08-07T15:00:41;5.10;;;2.43;;
938;SDS011;456;53.584;9.968;2023-08-07T15:03:07;4.10;;;2.47;;
938;SDS011;456;53.584;9.968;2023-08-07T15:05:32;6.03;;;3.00;;
938;SDS011;456;53.584;9.968;2023-08-07T15:07:59;3.67;;;2.40;;
938;SDS011;456;53.584;9.968;2023-08-07T15:10:25;4.30;;;2.70;;
938;SDS011;456;53.584;9.968;2023-08-07T15:12:51;3.17;;;2.40;;
938;SDS011;456;53.584;9.968;2023-08-07T15:15:16;4.73;;;2.87;;
938;SDS011;456;53.584;9.968;2023-08-07T15:17:42;3.40;;;2.83;;
938;SDS011;456;53.584;9.968;2023-08-07T15:20:08;3.87;;;2.70;;
938;SDS011;456;53.584;9.968;2023-08-07T15:22:34;4.13;;;3.03;;
938;SDS011;456;53.584;9.968;2023-08-07T15:24:59;4.60;;;3.03;;
938;SDS011;456;53.584;9.968;2023-08-07T15:27:25;4.47;;;2.83;;
938;SDS011;456;53.584;9.968;2023-08-07T15:29:50;4.57;;;2.60;;
938;SDS011;456;53.584;9.968;2023-08-07T15:32:16;4.20;;;2.77;;
938;SDS011;456;53.584;9.968;2023-08-07T15:34:44;4.77;;;3.03;;
938;SDS011;456;53.584;9.968;2023-08-07T15:37:10;5.17;;;3.23;;
938;SDS011;456;53.584;9.968;2023-08-07T15:39:36;5.13;;;3.47;;
938;SDS011;456;53.584;9.968;2023-08-07T15:42:02;4.97;;;2.73;;
938;SDS011;456;53.584;9.968;2023-08-07T15:44:27;5.43;;;2.80;;
938;SDS011;456;53.584;9.968;2023-08-07T15:46:53;4.40;;;2.87;;
938;SDS011;456;53.584;9.968;2023-08-07T15:49:18;4.43;;;3.10;;